Time;durP1;ratioP1;P1;durP2;ratioP2;P2;SDS_P1;SDS_P2;PMS_P1;PMS_P2;Temp;Humidity;BMP_temperature;BMP_pressure;BME280_temperature;BME280_humidity;BME280_pressure;Samples;Min_cycle;Max_cycle;Signal;HPM_P1;HPM_P2
2023/06/09 00:01:25;;;;;;;0.60;0.60;;;;;;;;;;5055226;28;20267;-77
2023/06/09 00:03:52;;;;;;;0.43;0.43;;;;;;;;;;5055770;28;20210;-77
2023/06/09 00:06:22;;;;;;;0.57;0.57;;;;;;;;;;5055706;28;20233;-78
2023/06/09 00:08:49;;;;;;;0.50;0.50;;;;;;;;;;5054989;28;20614;-77
2023/06/09 00:11:16;;;;;;;0.70;0.70;;;;;;;;;;5053081;28;20187;-79
2023/06/09 00:13:42;;;;;;;0.50;0.50;;;;;;;;;;5053185;28;20186;-79
2023/06/09 00:16:08;;;;;;;0.43;0.43;;;;;;;;;;5052906;28;20199;-77
2023/06/09 00:18:34;;;;;;;0.50;0.50;;;;;;;;;;5052824;28;20183;-77
2023/06/09 00:21:00;;;;;;;0.50;0.50;;;;;;;;;;5052833;28;20175;-79
2023/06/09 00:23:28;;;;;;;0.50;0.50;;;;;;;;;;5053738;28;20226;-80
2023/06/09 00:25:54;;;;;;;0.60;0.60;;;;;;;;;;5053334;28;20310;-77
2023/06/09 00:28:20;;;;;;;0.40;0.40;;;;;;;;;;5054064;28;20187;-77
2023/06/09 00:30:46;;;;;;;0.43;0.43;;;;;;;;;;5053727;28;20260;-76
2023/06/09 00:33:12;;;;;;;0.70;0.70;;;;;;;;;;5053883;28;20592;-77
2023/06/09 00:35:38;;;;;;;0.50;0.50;;;;;;;;;;5053468;28;20183;-77
2023/06/09 00:38:04;;;;;;;0.57;0.57;;;;;;;;;;5055715;28;20175;-79
2023/06/09 00:40:30;;;;;;;0.33;0.33;;;;;;;;;;5055361;28;20179;-77
2023/06/09 00:42:56;;;;;;;0.60;0.60;;;;;;;;;;5053436;28;20182;-79
2023/06/09 00:45:22;;;;;;;0.57;0.57;;;;;;;;;;5055756;28;20215;-79
2023/06/09 00:47:48;;;;;;;0.50;0.50;;;;;;;;;;5055909;28;20202;-79
2023/06/09 00:50:16;;;;;;;0.50;0.50;;;;;;;;;;5054925;28;20186;-79
2023/06/09 00:52:43;;;;;;;0.40;0.40;;;;;;;;;;5054647;28;20203;-77
2023/06/09 00:55:09;;;;;;;0.50;0.50;;;;;;;;;;5053651;28;20179;-75
2023/06/09 00:57:36;;;;;;;0.50;0.50;;;;;;;;;;5053992;28;20198;-79
2023/06/09 01:00:05;;;;;;;0.50;0.50;;;;;;;;;;5055517;28;20175;-80
2023/06/09 01:02:31;;;;;;;0.57;0.57;;;;;;;;;;5055436;28;20262;-80
2023/06/09 01:04:57;;;;;;;0.40;0.40;;;;;;;;;;5055004;28;20257;-80
2023/06/09 01:07:47;;;;;;;0.50;0.50;;;;;;;;;;5054503;28;20198;-79
2023/06/09 01:10:23;;;;;;;0.60;0.60;;;;;;;;;;5046478;28;20256;-80
2023/06/09 01:12:52;;;;;;;0.40;0.40;;;;;;;;;;5054150;28;20186;-79
2023/06/09 01:15:20;;;;;;;0.40;0.40;;;;;;;;;;5054581;28;20175;-79
2023/06/09 01:17:55;;;;;;;0.50;0.50;;;;;;;;;;5054112;28;20206;-79
2023/06/09 01:20:45;;;;;;;0.50;0.50;;;;;;;;;;5054485;28;20259;-79
2023/06/09 01:23:20;;;;;;;0.50;0.50;;;;;;;;;;5045118;28;20281;-79
2023/06/09 01:25:47;;;;;;;0.60;0.60;;;;;;;;;;5053657;28;20641;-79
2023/06/09 01:28:20;;;;;;;0.60;0.60;;;;;;;;;;5054230;28;20186;-79
2023/06/09 01:30:46;;;;;;;0.47;0.47;;;;;;;;;;5054785;28;20194;-79
2023/06/09 01:33:15;;;;;;;0.50;0.50;;;;;;;;;;5056098;28;20172;-79
2023/06/09 01:35:41;;;;;;;0.47;0.47;;;;;;;;;;5054801;28;20633;-79
2023/06/09 01:38:08;;;;;;;0.50;0.50;;;;;;;;;;5055608;28;20568;-78
2023/06/09 01:40:34;;;;;;;0.60;0.60;;;;;;;;;;5055808;28;20178;-79
2023/06/09 01:43:04;;;;;;;0.50;0.50;;;;;;;;;;5054602;28;20586;-80
2023/06/09 01:45:30;;;;;;;0.50;0.50;;;;;;;;;;5053705;28;20310;-79
2023/06/09 01:47:56;;;;;;;0.50;0.50;;;;;;;;;;5052663;28;20235;-79
2023/06/09 01:50:22;;;;;;;0.50;0.50;;;;;;;;;;5053760;28;20178;-78
2023/06/09 01:52:52;;;;;;;0.60;0.60;;;;;;;;;;5053559;28;20182;-79
2023/06/09 01:55:20;;;;;;;0.50;0.50;;;;;;;;;;5053978;28;20657;-84
2023/06/09 01:57:54;;;;;;;0.43;0.43;;;;;;;;;;5054448;28;20257;-78
2023/06/09 02:00:22;;;;;;;0.60;0.60;;;;;;;;;;5054331;28;20184;-78
2023/06/09 02:02:50;;;;;;;0.50;0.50;;;;;;;;;;5053763;28;20175;-78
2023/06/09 02:05:17;;;;;;;0.57;0.57;;;;;;;;;;5053903;28;20215;-79
2023/06/09 02:07:44;;;;;;;0.50;0.50;;;;;;;;;;5053517;28;20263;-79
2023/06/09 02:10:10;;;;;;;0.60;0.60;;;;;;;;;;5059743;28;20202;-79
2023/06/09 02:12:36;;;;;;;0.50;0.50;;;;;;;;;;5063400;28;20180;-79
2023/06/09 02:15:03;;;;;;;0.40;0.40;;;;;;;;;;5061616;28;20546;-79
2023/06/09 02:17:29;;;;;;;0.60;0.60;;;;;;;;;;5064046;28;20267;-79
2023/06/09 02:19:55;;;;;;;0.40;0.40;;;;;;;;;;5070832;28;20202;-79
2023/06/09 02:22:21;;;;;;;0.57;0.57;;;;;;;;;;5059695;28;20229;-80
2023/06/09 02:24:47;;;;;;;0.50;0.50;;;;;;;;;;5069364;28;20214;-79
2023/06/09 02:27:13;;;;;;;0.50;0.50;;;;;;;;;;5060275;28;20211;-80
2023/06/09 02:29:40;;;;;;;0.40;0.40;;;;;;;;;;5060830;28;20186;-78
2023/06/09 02:32:06;;;;;;;0.50;0.50;;;;;;;;;;5060727;28;20255;-79
2023/06/09 02:34:32;;;;;;;0.50;0.50;;;;;;;;;;5060824;28;20179;-79
2023/06/09 02:36:59;;;;;;;0.50;0.50;;;;;;;;;;5059971;28;20195;-78
2023/06/09 02:39:25;;;;;;;0.40;0.40;;;;;;;;;;5059345;28;20247;-78
2023/06/09 02:41:51;;;;;;;0.50;0.50;;;;;;;;;;5058901;28;20175;-79
2023/06/09 02:44:17;;;;;;;0.50;0.50;;;;;;;;;;5058325;28;20238;-78
2023/06/09 02:46:44;;;;;;;0.60;0.60;;;;;;;;;;5058000;28;20199;-79
2023/06/09 02:49:10;;;;;;;0.50;0.50;;;;;;;;;;5058728;28;20183;-79
2023/06/09 02:51:36;;;;;;;0.50;0.50;;;;;;;;;;5058626;28;20179;-79
2023/06/09 02:54:03;;;;;;;0.50;0.50;;;;;;;;;;5056894;28;20266;-79
2023/06/09 02:56:29;;;;;;;0.40;0.40;;;;;;;;;;5056514;28;20286;-79
2023/06/09 02:58:55;;;;;;;0.70;0.70;;;;;;;;;;5056528;28;20205;-79
2023/06/09 03:01:21;;;;;;;0.50;0.50;;;;;;;;;;5057333;28;20520;-78
2023/06/09 03:03:48;;;;;;;0.47;0.47;;;;;;;;;;5058079;28;20226;-78
2023/06/09 03:06:14;;;;;;;0.50;0.50;;;;;;;;;;5057602;28;20199;-78
2023/06/09 03:08:43;;;;;;;0.60;0.60;;;;;;;;;;5058778;28;20785;-78
2023/06/09 03:11:10;;;;;;;0.50;0.50;;;;;;;;;;5057888;28;20187;-79
2023/06/09 03:13:36;;;;;;;0.60;0.60;;;;;;;;;;5057614;28;20254;-79
2023/06/09 03:16:03;;;;;;;0.60;0.60;;;;;;;;;;5057243;28;20569;-79
2023/06/09 03:18:29;;;;;;;0.50;0.50;;;;;;;;;;5059854;28;20243;-78
2023/06/09 03:21:01;;;;;;;0.60;0.60;;;;;;;;;;5069022;28;20226;-78
2023/06/09 03:23:31;;;;;;;0.43;0.43;;;;;;;;;;5069977;28;20182;-78
2023/06/09 03:25:57;;;;;;;0.50;0.50;;;;;;;;;;5070878;28;20191;-78
2023/06/09 03:28:23;;;;;;;0.50;0.50;;;;;;;;;;5071670;28;20206;-78
2023/06/09 03:30:49;;;;;;;0.40;0.40;;;;;;;;;;5071959;28;20201;-78
2023/06/09 03:33:18;;;;;;;0.50;0.50;;;;;;;;;;5070899;28;20198;-78
2023/06/09 03:35:44;;;;;;;0.53;0.53;;;;;;;;;;5069696;28;20210;-78
2023/06/09 03:38:10;;;;;;;0.50;0.50;;;;;;;;;;5070034;28;20171;-77
2023/06/09 03:40:36;;;;;;;0.50;0.50;;;;;;;;;;5070203;28;20193;-77
2023/06/09 03:43:02;;;;;;;0.70;0.70;;;;;;;;;;5070265;28;20179;-77
2023/06/09 03:45:28;;;;;;;0.57;0.57;;;;;;;;;;5070978;28;20211;-77
2023/06/09 03:47:54;;;;;;;0.50;0.50;;;;;;;;;;5069743;28;20206;-77
2023/06/09 03:50:20;;;;;;;0.40;0.40;;;;;;;;;;5070781;28;20187;-77
2023/06/09 03:52:46;;;;;;;0.50;0.50;;;;;;;;;;5071257;28;20187;-78
2023/06/09 03:55:12;;;;;;;0.50;0.50;;;;;;;;;;5093409;22;20219;-90
2023/06/09 03:57:38;;;;;;;0.43;0.43;;;;;;;;;;5075157;28;20638;-90
2023/06/09 04:00:05;;;;;;;0.40;0.40;;;;;;;;;;5075324;28;20178;-90
2023/06/09 04:02:31;;;;;;;0.50;0.50;;;;;;;;;;5075445;28;20182;-90
2023/06/09 04:04:57;;;;;;;0.50;0.50;;;;;;;;;;5075894;28;20210;-90
2023/06/09 04:07:23;;;;;;;0.50;0.50;;;;;;;;;;5074808;28;20255;-90
2023/06/09 04:09:49;;;;;;;0.60;0.60;;;;;;;;;;5075552;28;20720;-89
2023/06/09 04:12:15;;;;;;;0.50;0.50;;;;;;;;;;5074506;28;20637;-88
2023/06/09 04:14:41;;;;;;;0.60;0.60;;;;;;;;;;5074523;28;20875;-88
2023/06/09 04:17:07;;;;;;;0.47;0.47;;;;;;;;;;5073570;28;20198;-88
2023/06/09 04:19:33;;;;;;;0.50;0.50;;;;;;;;;;5074428;28;20232;-88
2023/06/09 04:22:04;;;;;;;0.40;0.40;;;;;;;;;;5074587;28;20179;-88
2023/06/09 04:24:30;;;;;;;0.43;0.43;;;;;;;;;;5074196;28;20221;-89
2023/06/09 04:26:57;;;;;;;0.60;0.60;;;;;;;;;;5074711;28;20195;-89
2023/06/09 04:29:24;;;;;;;0.40;0.40;;;;;;;;;;5074830;28;20269;-88
2023/06/09 04:31:58;;;;;;;0.57;0.57;;;;;;;;;;5074928;28;20182;-89
2023/06/09 04:34:25;;;;;;;0.50;0.50;;;;;;;;;;5074576;28;20163;-88
2023/06/09 04:36:53;;;;;;;0.40;0.40;;;;;;;;;;5074408;28;20233;-89
2023/06/09 04:39:28;;;;;;;0.57;0.57;;;;;;;;;;5086047;28;20652;-88
2023/06/09 04:41:54;;;;;;;0.50;0.50;;;;;;;;;;5094486;28;20173;-88
2023/06/09 04:44:22;;;;;;;0.40;0.40;;;;;;;;;;5094230;28;20213;-88
2023/06/09 04:46:49;;;;;;;0.50;0.50;;;;;;;;;;5094001;28;20664;-87
2023/06/09 04:49:15;;;;;;;0.50;0.50;;;;;;;;;;5094322;28;20177;-87
2023/06/09 04:51:46;;;;;;;0.47;0.47;;;;;;;;;;5098704;28;20189;-87
2023/06/09 04:54:16;;;;;;;0.50;0.50;;;;;;;;;;5097679;28;20201;-87
2023/06/09 04:56:43;;;;;;;0.50;0.50;;;;;;;;;;5094765;28;20680;-87
2023/06/09 04:59:10;;;;;;;0.40;0.40;;;;;;;;;;5094825;28;20253;-87
2023/06/09 05:01:37;;;;;;;0.33;0.33;;;;;;;;;;5094639;28;20174;-88
2023/06/09 05:04:03;;;;;;;0.50;0.50;;;;;;;;;;5094434;28;20206;-87
2023/06/09 05:06:29;;;;;;;0.37;0.37;;;;;;;;;;5094311;28;20568;-88
2023/06/09 05:08:55;;;;;;;0.50;0.50;;;;;;;;;;5095952;28;20200;-88
2023/06/09 05:11:21;;;;;;;0.40;0.40;;;;;;;;;;5117875;28;20173;-88
2023/06/09 05:13:47;;;;;;;0.43;0.43;;;;;;;;;;5118114;28;20158;-88
2023/06/09 05:16:15;;;;;;;0.40;0.40;;;;;;;;;;5115967;28;20213;-87
2023/06/09 05:18:41;;;;;;;0.30;0.30;;;;;;;;;;5099763;28;20654;-87
2023/06/09 05:21:07;;;;;;;0.40;0.40;;;;;;;;;;5095261;28;20176;-87
2023/06/09 05:23:33;;;;;;;0.40;0.40;;;;;;;;;;5094712;28;20205;-87
2023/06/09 05:26:00;;;;;;;0.50;0.50;;;;;;;;;;5094120;28;20196;-88
2023/06/09 05:28:26;;;;;;;0.43;0.43;;;;;;;;;;5094021;28;20170;-88
2023/06/09 05:30:52;;;;;;;0.30;0.30;;;;;;;;;;5094705;28;20683;-88
2023/06/09 05:33:18;;;;;;;0.43;0.43;;;;;;;;;;5095580;28;20174;-87
2023/06/09 05:35:45;;;;;;;0.43;0.43;;;;;;;;;;5095247;28;20177;-88
2023/06/09 05:38:11;;;;;;;0.40;0.40;;;;;;;;;;5095170;28;20197;-88
2023/06/09 05:40:37;;;;;;;0.30;0.30;;;;;;;;;;5095750;28;20234;-87
2023/06/09 05:43:03;;;;;;;0.40;0.40;;;;;;;;;;5097013;28;20192;-87
2023/06/09 05:45:29;;;;;;;0.30;0.30;;;;;;;;;;5099929;28;20209;-87
2023/06/09 05:47:56;;;;;;;0.30;0.30;;;;;;;;;;5098813;28;20194;-87
2023/06/09 05:50:22;;;;;;;0.40;0.40;;;;;;;;;;5097884;28;20280;-87
2023/06/09 05:52:48;;;;;;;0.40;0.40;;;;;;;;;;5098479;28;20645;-87
2023/06/09 05:55:16;;;;;;;0.40;0.40;;;;;;;;;;5098350;28;20192;-88
2023/06/09 05:57:44;;;;;;;0.43;0.43;;;;;;;;;;5097432;28;20189;-88
2023/06/09 06:00:10;;;;;;;0.40;0.40;;;;;;;;;;5087797;28;20178;-87
2023/06/09 06:02:39;;;;;;;0.50;0.50;;;;;;;;;;5077565;28;20174;-89
2023/06/09 06:05:06;;;;;;;0.40;0.40;;;;;;;;;;5077185;28;20245;-89
2023/06/09 06:07:32;;;;;;;0.40;0.40;;;;;;;;;;5077519;28;20200;-89
2023/06/09 06:09:59;;;;;;;0.50;0.50;;;;;;;;;;5078216;28;20661;-90
2023/06/09 06:12:25;;;;;;;0.40;0.40;;;;;;;;;;5078049;28;20178;-87
2023/06/09 06:14:51;;;;;;;0.40;0.40;;;;;;;;;;5078124;28;20540;-88
2023/06/09 06:17:17;;;;;;;0.30;0.30;;;;;;;;;;5077862;28;20205;-89
2023/06/09 06:19:43;;;;;;;0.30;0.30;;;;;;;;;;5077704;28;20189;-89
2023/06/09 06:22:09;;;;;;;0.40;0.40;;;;;;;;;;5077021;28;20173;-87
2023/06/09 06:24:35;;;;;;;0.40;0.40;;;;;;;;;;5077879;28;20605;-88
2023/06/09 06:27:01;;;;;;;0.30;0.30;;;;;;;;;;5076895;28;20194;-89
2023/06/09 06:29:29;;;;;;;0.30;0.30;;;;;;;;;;5077938;28;20178;-89
2023/06/09 06:31:55;;;;;;;0.40;0.40;;;;;;;;;;5076901;28;20178;-89
2023/06/09 06:34:21;;;;;;;0.33;0.33;;;;;;;;;;5076713;28;20182;-86
2023/06/09 06:36:47;;;;;;;0.30;0.30;;;;;;;;;;5076200;28;20546;-89
2023/06/09 06:39:14;;;;;;;0.50;0.50;;;;;;;;;;5076531;28;20193;-90
2023/06/09 06:41:40;;;;;;;0.47;0.47;;;;;;;;;;5076932;28;20181;-89
2023/06/09 06:44:06;;;;;;;0.40;0.40;;;;;;;;;;5077427;28;20548;-89
2023/06/09 06:46:32;;;;;;;0.40;0.40;;;;;;;;;;5076690;28;20198;-89
2023/06/09 06:48:58;;;;;;;0.40;0.40;;;;;;;;;;5077976;28;20202;-86
2023/06/09 06:51:24;;;;;;;0.40;0.40;;;;;;;;;;5076024;28;20179;-87
2023/06/09 06:53:50;;;;;;;0.30;0.30;;;;;;;;;;5086020;28;20162;-89
2023/06/09 06:56:16;;;;;;;0.37;0.37;;;;;;;;;;5090200;28;20588;-90
2023/06/09 06:58:43;;;;;;;0.40;0.40;;;;;;;;;;5091288;28;20178;-89
2023/06/09 07:01:09;;;;;;;0.37;0.37;;;;;;;;;;5085626;28;20633;-87
2023/06/09 07:03:35;;;;;;;0.30;0.30;;;;;;;;;;5078794;28;20182;-87
2023/06/09 07:06:01;;;;;;;0.40;0.40;;;;;;;;;;5075745;28;20202;-86
2023/06/09 07:08:27;;;;;;;0.47;0.47;;;;;;;;;;5076234;28;20269;-86
2023/06/09 07:10:54;;;;;;;0.50;0.50;;;;;;;;;;5076200;28;20669;-86
2023/06/09 07:13:21;;;;;;;0.30;0.30;;;;;;;;;;5075892;28;20186;-86
2023/06/09 07:15:47;;;;;;;0.30;0.30;;;;;;;;;;5075828;28;20645;-87
2023/06/09 07:18:13;;;;;;;0.40;0.40;;;;;;;;;;5076099;28;20248;-87
2023/06/09 07:20:40;;;;;;;0.50;0.50;;;;;;;;;;5075822;28;20547;-86
2023/06/09 07:23:06;;;;;;;0.30;0.30;;;;;;;;;;5075709;28;20185;-87
2023/06/09 07:25:32;;;;;;;0.37;0.37;;;;;;;;;;5075747;28;20214;-87
2023/06/09 07:27:58;;;;;;;0.30;0.30;;;;;;;;;;5056817;28;20194;-86
2023/06/09 07:30:24;;;;;;;0.30;0.30;;;;;;;;;;5076050;28;20196;-88
2023/06/09 07:32:50;;;;;;;0.30;0.30;;;;;;;;;;5076007;28;20175;-88
2023/06/09 07:35:19;;;;;;;0.30;0.30;;;;;;;;;;5076864;28;20179;-90
2023/06/09 07:37:46;;;;;;;0.40;0.40;;;;;;;;;;5098934;28;20203;-90
2023/06/09 07:40:12;;;;;;;0.20;0.20;;;;;;;;;;5099205;28;20163;-87
2023/06/09 07:42:38;;;;;;;0.30;0.30;;;;;;;;;;5094741;28;20581;-86
2023/06/09 07:45:05;;;;;;;0.40;0.40;;;;;;;;;;5083645;28;20213;-87
2023/06/09 07:47:31;;;;;;;0.30;0.30;;;;;;;;;;5075769;28;20198;-86
2023/06/09 07:49:57;;;;;;;0.30;0.30;;;;;;;;;;5076210;28;20190;-88
2023/06/09 07:52:23;;;;;;;0.30;0.30;;;;;;;;;;5076762;28;20174;-86
2023/06/09 07:54:49;;;;;;;0.20;0.20;;;;;;;;;;5077411;28;20179;-86
2023/06/09 07:57:15;;;;;;;0.33;0.33;;;;;;;;;;5076927;28;20225;-86
2023/06/09 07:59:42;;;;;;;0.30;0.30;;;;;;;;;;5075506;28;20174;-86
2023/06/09 08:02:08;;;;;;;0.30;0.30;;;;;;;;;;5074559;28;20179;-87
2023/06/09 08:04:35;;;;;;;0.30;0.30;;;;;;;;;;5075157;28;20858;-86
2023/06/09 08:07:01;;;;;;;0.43;0.43;;;;;;;;;;5074867;28;20214;-87
2023/06/09 08:09:27;;;;;;;0.23;0.23;;;;;;;;;;5073806;28;20186;-88
2023/06/09 08:11:53;;;;;;;0.40;0.40;;;;;;;;;;5075641;28;20236;-87
2023/06/09 08:14:20;;;;;;;0.30;0.30;;;;;;;;;;5074615;28;20185;-86
2023/06/09 08:16:46;;;;;;;0.50;0.50;;;;;;;;;;5074172;28;20289;-87
2023/06/09 08:19:12;;;;;;;0.50;0.50;;;;;;;;;;5067468;28;20178;-88
2023/06/09 08:21:45;;;;;;;0.40;0.40;;;;;;;;;;5097527;28;20176;-87
2023/06/09 08:24:11;;;;;;;0.47;0.47;;;;;;;;;;5077717;28;20697;-87
2023/06/09 08:26:37;;;;;;;0.40;0.40;;;;;;;;;;5073424;28;20190;-86
2023/06/09 08:29:04;;;;;;;0.40;0.40;;;;;;;;;;5073667;28;20186;-86
2023/06/09 08:31:31;;;;;;;0.40;0.40;;;;;;;;;;5074280;28;20261;-85
2023/06/09 08:33:57;;;;;;;0.40;0.40;;;;;;;;;;5074355;28;20181;-85
2023/06/09 08:36:23;;;;;;;0.37;0.37;;;;;;;;;;5075201;28;20229;-85
2023/06/09 08:38:49;;;;;;;0.40;0.40;;;;;;;;;;5091465;28;20181;-86
2023/06/09 08:41:16;;;;;;;0.30;0.30;;;;;;;;;;5085374;28;20463;-85
2023/06/09 08:43:42;;;;;;;0.40;0.40;;;;;;;;;;5090859;28;20204;-85
2023/06/09 08:46:11;;;;;;;0.40;0.40;;;;;;;;;;5089043;28;20198;-86
2023/06/09 08:48:44;;;;;;;0.40;0.40;;;;;;;;;;5092895;28;20194;-85
2023/06/09 08:51:10;;;;;;;0.30;0.30;;;;;;;;;;5093408;28;20220;-86
2023/06/09 08:53:36;;;;;;;0.50;0.50;;;;;;;;;;5078689;28;20183;-86
2023/06/09 08:56:02;;;;;;;0.37;0.37;;;;;;;;;;5069374;28;20206;-88
2023/06/09 08:58:28;;;;;;;0.50;0.50;;;;;;;;;;5074270;28;20613;-86
2023/06/09 09:00:55;;;;;;;0.50;0.50;;;;;;;;;;5075617;28;20185;-86
2023/06/09 09:03:22;;;;;;;0.50;0.50;;;;;;;;;;5075716;28;20265;-86
2023/06/09 09:05:48;;;;;;;0.20;0.20;;;;;;;;;;5074562;28;20184;-87
2023/06/09 09:08:14;;;;;;;0.40;0.40;;;;;;;;;;5073876;28;20261;-87
2023/06/09 09:10:40;;;;;;;0.40;0.40;;;;;;;;;;5072736;28;20248;-86
2023/06/09 09:13:08;;;;;;;0.40;0.40;;;;;;;;;;5073743;28;20186;-86
2023/06/09 09:15:35;;;;;;;0.40;0.40;;;;;;;;;;5073928;28;20235;-86
2023/06/09 09:18:01;;;;;;;0.30;0.30;;;;;;;;;;5060251;28;20267;-87
2023/06/09 09:20:34;;;;;;;0.40;0.40;;;;;;;;;;5070665;28;20615;-87
2023/06/09 09:23:00;;;;;;;0.40;0.40;;;;;;;;;;5073701;28;20204;-85
2023/06/09 09:25:30;;;;;;;0.40;0.40;;;;;;;;;;5063226;28;20194;-87
2023/06/09 09:28:09;;;;;;;0.30;0.30;;;;;;;;;;5062100;28;20245;-88
2023/06/09 09:30:46;;;;;;;0.30;0.30;;;;;;;;;;5074603;28;20318;-86
2023/06/09 09:33:32;;;;;;;0.40;0.40;;;;;;;;;;5071128;28;20189;-88
2023/06/09 09:35:59;;;;;;;0.47;0.47;;;;;;;;;;5059131;28;20336;-87
2023/06/09 09:38:29;;;;;;;0.43;0.43;;;;;;;;;;5066152;28;20242;-85
2023/06/09 09:46:36;;;;;;;0.40;0.40;;;;;;;;;;5065396;28;20233;-86
2023/06/09 09:49:02;;;;;;;0.50;0.50;;;;;;;;;;5071777;28;20317;-87
2023/06/09 09:51:28;;;;;;;0.50;0.50;;;;;;;;;;5071721;28;20206;-87
2023/06/09 09:53:58;;;;;;;0.40;0.40;;;;;;;;;;5071642;28;20213;-87
2023/06/09 09:56:25;;;;;;;0.50;0.50;;;;;;;;;;5072550;28;20183;-87
2023/06/09 09:58:52;;;;;;;0.50;0.50;;;;;;;;;;5083770;28;20196;-86
2023/06/09 10:01:21;;;;;;;0.40;0.40;;;;;;;;;;5093139;28;20250;-87
2023/06/09 10:03:47;;;;;;;0.40;0.40;;;;;;;;;;5092731;28;20202;-87
2023/06/09 10:06:14;;;;;;;0.40;0.40;;;;;;;;;;5083777;28;20648;-86
2023/06/09 10:08:42;;;;;;;0.33;0.33;;;;;;;;;;5072085;28;20183;-86
2023/06/09 10:11:08;;;;;;;0.30;0.30;;;;;;;;;;5072121;28;20183;-86
2023/06/09 10:13:35;;;;;;;0.50;0.50;;;;;;;;;;5072051;28;20241;-86
2023/06/09 10:16:01;;;;;;;0.50;0.50;;;;;;;;;;5072591;28;20566;-86
2023/06/09 10:18:27;;;;;;;0.50;0.50;;;;;;;;;;5072153;28;20629;-86
2023/06/09 10:20:54;;;;;;;0.40;0.40;;;;;;;;;;5072329;28;20179;-87
2023/06/09 10:23:20;;;;;;;0.40;0.40;;;;;;;;;;5053736;28;20195;-85
2023/06/09 10:25:48;;;;;;;0.50;0.50;;;;;;;;;;5072384;28;20301;-87
2023/06/09 10:28:16;;;;;;;0.50;0.50;;;;;;;;;;5071420;28;20183;-86
2023/06/09 10:30:42;;;;;;;0.47;0.47;;;;;;;;;;5071863;28;20591;-85
2023/06/09 10:33:11;;;;;;;0.50;0.50;;;;;;;;;;5074072;28;20215;-86
2023/06/09 10:35:38;;;;;;;0.50;0.50;;;;;;;;;;5075267;28;20178;-87
2023/06/09 10:38:23;;;;;;;0.30;0.30;;;;;;;;;;5075453;28;20191;-86
2023/06/09 10:41:10;;;;;;;0.67;0.67;;;;;;;;;;5075477;28;20534;-87
2023/06/09 10:43:41;;;;;;;0.50;0.50;;;;;;;;;;5074452;28;20190;-87
2023/06/09 10:46:12;;;;;;;0.50;0.50;;;;;;;;;;5075909;28;20179;-87
2023/06/09 10:48:49;;;;;;;0.30;0.30;;;;;;;;;;5076636;28;20186;-87
2023/06/09 10:51:27;;;;;;;0.40;0.40;;;;;;;;;;5076001;28;20177;-86
2023/06/09 10:54:12;;;;;;;0.37;0.37;;;;;;;;;;5074601;28;20198;-87
2023/06/09 10:56:40;;;;;;;0.30;0.30;;;;;;;;;;5074887;28;20202;-86
2023/06/09 10:59:06;;;;;;;0.47;0.47;;;;;;;;;;5074756;28;20547;-88
2023/06/09 11:01:32;;;;;;;0.50;0.50;;;;;;;;;;5074716;28;20178;-88
2023/06/09 11:03:58;;;;;;;0.60;0.60;;;;;;;;;;5076501;28;20210;-88
2023/06/09 11:06:25;;;;;;;0.60;0.60;;;;;;;;;;5083645;28;20225;-86
2023/06/09 11:09:01;;;;;;;0.40;0.40;;;;;;;;;;5081917;28;20186;-86
2023/06/09 11:11:46;;;;;;;0.60;0.60;;;;;;;;;;5079554;28;20678;-86
2023/06/09 11:14:32;;;;;;;0.50;0.50;;;;;;;;;;5074067;28;20210;-87
2023/06/09 11:17:16;;;;;;;0.40;0.40;;;;;;;;;;5074312;28;20174;-88
2023/06/09 11:19:43;;;;;;;0.57;0.57;;;;;;;;;;5074762;28;20182;-87
2023/06/09 11:22:09;;;;;;;0.40;0.40;;;;;;;;;;5074185;28;20205;-87
2023/06/09 11:24:47;;;;;;;0.50;0.50;;;;;;;;;;5074370;28;20691;-87
2023/06/09 11:27:17;;;;;;;0.40;0.40;;;;;;;;;;5074255;28;20652;-88
2023/06/09 11:29:44;;;;;;;0.57;0.57;;;;;;;;;;5074129;28;20182;-87
2023/06/09 11:32:10;;;;;;;0.50;0.50;;;;;;;;;;5073642;28;20194;-87
2023/06/09 11:35:04;;;;;;;0.60;0.60;;;;;;;;;;5074120;28;20519;-87
2023/06/09 11:37:30;;;;;;;0.53;0.53;;;;;;;;;;5072958;28;20194;-88
2023/06/09 11:39:57;;;;;;;0.40;0.40;;;;;;;;;;5074133;28;20249;-87
2023/06/09 11:42:23;;;;;;;0.40;0.40;;;;;;;;;;5073610;28;20214;-88
2023/06/09 11:44:49;;;;;;;0.60;0.60;;;;;;;;;;5074713;28;20676;-86
2023/06/09 11:47:28;;;;;;;0.50;0.50;;;;;;;;;;5074178;28;20183;-87
2023/06/09 11:50:05;;;;;;;0.40;0.40;;;;;;;;;;5074253;28;20181;-87
2023/06/09 11:52:31;;;;;;;0.50;0.50;;;;;;;;;;5074030;28;20209;-87
2023/06/09 11:54:57;;;;;;;0.30;0.30;;;;;;;;;;5080069;28;20183;-87
2023/06/09 11:57:24;;;;;;;0.37;0.37;;;;;;;;;;5098930;28;20167;-88
2023/06/09 11:59:50;;;;;;;0.50;0.50;;;;;;;;;;5098933;28;20193;-87
2023/06/09 12:02:16;;;;;;;0.50;0.50;;;;;;;;;;5098925;28;20187;-86
2023/06/09 12:04:43;;;;;;;0.40;0.40;;;;;;;;;;5098564;28;20205;-87
2023/06/09 12:07:13;;;;;;;0.40;0.40;;;;;;;;;;5099118;28;20208;-86
2023/06/09 12:09:39;;;;;;;0.50;0.50;;;;;;;;;;5091550;28;20171;-85
2023/06/09 12:12:05;;;;;;;0.70;0.70;;;;;;;;;;5073192;28;20629;-88
2023/06/09 12:14:32;;;;;;;0.50;0.50;;;;;;;;;;5073291;28;20182;-87
2023/06/09 12:16:58;;;;;;;0.60;0.60;;;;;;;;;;5073470;28;20185;-87
2023/06/09 12:19:24;;;;;;;0.47;0.47;;;;;;;;;;5073267;28;20625;-86
2023/06/09 12:21:51;;;;;;;0.50;0.50;;;;;;;;;;5073260;28;20269;-87
2023/06/09 12:24:17;;;;;;;0.50;0.50;;;;;;;;;;5073187;28;20210;-87
2023/06/09 12:26:49;;;;;;;0.47;0.47;;;;;;;;;;5072986;28;20266;-87
2023/06/09 12:29:16;;;;;;;0.23;0.23;;;;;;;;;;5073881;28;20194;-86
2023/06/09 12:31:51;;;;;;;0.47;0.47;;;;;;;;;;5072946;28;20224;-87
2023/06/09 12:34:23;;;;;;;0.40;0.40;;;;;;;;;;5072765;28;20564;-88
2023/06/09 12:36:50;;;;;;;0.50;0.50;;;;;;;;;;5082618;28;20171;-87
2023/06/09 12:39:16;;;;;;;0.50;0.50;;;;;;;;;;5086800;28;20613;-87
2023/06/09 12:41:42;;;;;;;0.53;0.53;;;;;;;;;;5074434;28;20186;-87
2023/06/09 12:44:08;;;;;;;0.50;0.50;;;;;;;;;;5073537;28;20211;-87
2023/06/09 12:46:35;;;;;;;0.50;0.50;;;;;;;;;;5073856;28;20197;-87
2023/06/09 12:49:03;;;;;;;0.43;0.43;;;;;;;;;;5073457;28;20653;-87
2023/06/09 12:51:30;;;;;;;0.60;0.60;;;;;;;;;;5072041;28;20178;-87
2023/06/09 12:53:56;;;;;;;0.30;0.30;;;;;;;;;;5072392;28;20190;-87
2023/06/09 12:56:22;;;;;;;0.60;0.60;;;;;;;;;;5073652;28;20178;-87
2023/06/09 12:58:48;;;;;;;0.50;0.50;;;;;;;;;;5072775;28;20175;-88
2023/06/09 13:01:15;;;;;;;0.30;0.30;;;;;;;;;;5072906;28;20640;-88
2023/06/09 13:03:41;;;;;;;0.40;0.40;;;;;;;;;;5071685;28;20669;-88
2023/06/09 13:06:07;;;;;;;0.40;0.40;;;;;;;;;;5072281;28;20181;-88
2023/06/09 13:08:33;;;;;;;0.47;0.47;;;;;;;;;;5072249;28;20197;-87
2023/06/09 13:10:59;;;;;;;0.50;0.50;;;;;;;;;;5072994;28;20633;-89
2023/06/09 13:13:25;;;;;;;0.40;0.40;;;;;;;;;;5072921;28;20636;-87
2023/06/09 13:15:51;;;;;;;0.40;0.40;;;;;;;;;;5072411;28;20179;-87
2023/06/09 13:18:17;;;;;;;0.30;0.30;;;;;;;;;;5072591;28;20175;-88
2023/06/09 13:20:43;;;;;;;0.50;0.50;;;;;;;;;;5072350;28;20564;-86
2023/06/09 13:23:11;;;;;;;0.50;0.50;;;;;;;;;;5072122;28;20234;-87
2023/06/09 13:25:41;;;;;;;0.50;0.50;;;;;;;;;;5071703;28;20263;-89
2023/06/09 13:28:07;;;;;;;0.47;0.47;;;;;;;;;;5073084;28;20179;-88
2023/06/09 13:30:33;;;;;;;0.40;0.40;;;;;;;;;;5072319;28;20628;-88
2023/06/09 13:33:00;;;;;;;0.40;0.40;;;;;;;;;;5071602;28;20194;-88
2023/06/09 13:35:26;;;;;;;0.50;0.50;;;;;;;;;;5072475;28;20170;-88
2023/06/09 13:37:52;;;;;;;0.40;0.40;;;;;;;;;;5054795;28;20280;-88
2023/06/09 13:40:18;;;;;;;0.43;0.43;;;;;;;;;;5073126;28;20178;-87
2023/06/09 13:42:50;;;;;;;0.40;0.40;;;;;;;;;;5072871;28;20292;-88
2023/06/09 13:45:16;;;;;;;0.50;0.50;;;;;;;;;;5074627;28;20210;-87
2023/06/09 13:47:43;;;;;;;0.30;0.30;;;;;;;;;;5074351;28;20296;-89
2023/06/09 13:50:10;;;;;;;0.40;0.40;;;;;;;;;;5075270;28;20167;-88
2023/06/09 13:52:37;;;;;;;0.30;0.30;;;;;;;;;;5075178;28;20226;-87
2023/06/09 13:55:03;;;;;;;0.40;0.40;;;;;;;;;;5072798;28;20253;-88
2023/06/09 13:57:30;;;;;;;0.30;0.30;;;;;;;;;;5072925;28;20174;-88
2023/06/09 13:59:56;;;;;;;0.50;0.50;;;;;;;;;;5072390;28;20588;-88
2023/06/09 14:02:22;;;;;;;0.60;0.60;;;;;;;;;;5072769;28;20191;-88
2023/06/09 14:04:48;;;;;;;0.50;0.50;;;;;;;;;;5073122;28;20233;-89
2023/06/09 14:07:13;;;;;;;0.40;0.40;;;;;;;;;;5076639;28;20202;-89
2023/06/09 14:09:41;;;;;;;0.40;0.40;;;;;;;;;;5083692;28;20197;-89
2023/06/09 14:12:07;;;;;;;0.33;0.33;;;;;;;;;;5081188;28;20174;-88
2023/06/09 14:14:33;;;;;;;0.20;0.20;;;;;;;;;;5075989;28;20185;-88
2023/06/09 14:17:00;;;;;;;0.33;0.33;;;;;;;;;;5075705;28;20171;-88
2023/06/09 14:19:26;;;;;;;0.30;0.30;;;;;;;;;;5076256;28;20668;-87
2023/06/09 14:21:52;;;;;;;0.40;0.40;;;;;;;;;;5076321;28;20174;-87
2023/06/09 14:24:18;;;;;;;0.40;0.40;;;;;;;;;;5076417;28;20320;-88
2023/06/09 14:26:45;;;;;;;0.50;0.50;;;;;;;;;;5076608;28;20179;-87
2023/06/09 14:29:11;;;;;;;0.40;0.40;;;;;;;;;;5076857;28;20193;-90
2023/06/09 14:31:37;;;;;;;0.40;0.40;;;;;;;;;;5075935;28;20652;-90
2023/06/09 14:34:03;;;;;;;0.50;0.50;;;;;;;;;;5075159;28;20293;-87
2023/06/09 14:36:29;;;;;;;0.40;0.40;;;;;;;;;;5074822;28;20560;-87
2023/06/09 14:38:55;;;;;;;0.40;0.40;;;;;;;;;;5075074;28;20262;-89
2023/06/09 14:41:21;;;;;;;0.40;0.40;;;;;;;;;;5082624;28;20546;-92
2023/06/09 14:43:47;;;;;;;0.40;0.40;;;;;;;;;;5099545;28;20183;-91
2023/06/09 14:46:14;;;;;;;0.40;0.40;;;;;;;;;;5099674;28;20193;-91
2023/06/09 14:48:40;;;;;;;0.30;0.30;;;;;;;;;;5099885;28;20198;-92
2023/06/09 14:51:06;;;;;;;0.30;0.30;;;;;;;;;;5099859;28;20186;-92